Time;durP1;ratioP1;P1;durP2;ratioP2;P2;SDS_P1;SDS_P2;PMS_P1;PMS_P2;Temp;Humidity;BMP_temperature;BMP_pressure;BME280_temperature;BME280_humidity;BME280_pressure;Samples;Min_cycle;Max_cycle;Signal;HPM_P1;HPM_P2
2024/02/08 00:02:14;;;;;;;17.50;10.97;;;7.00;99.90;;;;;;4973362;28;20405;-64
2024/02/08 00:04:41;;;;;;;23.27;10.57;;;7.00;99.90;;;;;;4974407;28;20621;-64
2024/02/08 00:07:07;;;;;;;12.47;11.00;;;7.00;99.90;;;;;;4974098;28;20595;-60
2024/02/08 00:09:32;;;;;;;14.50;11.87;;;7.00;99.90;;;;;;4971443;28;20541;-64
2024/02/08 00:11:58;;;;;;;13.80;10.03;;;7.10;99.90;;;;;;4974187;28;20266;-64
2024/02/08 00:14:24;;;;;;;15.80;11.30;;;7.10;99.90;;;;;;4973406;28;20253;-64
2024/02/08 00:16:52;;;;;;;15.27;10.73;;;7.10;99.90;;;;;;4990212;28;20242;-64
2024/02/08 00:19:18;;;;;;;14.30;10.30;;;7.10;99.90;;;;;;4992524;28;20513;-64
2024/02/08 00:21:44;;;;;;;15.00;10.40;;;7.10;99.90;;;;;;4993239;28;20423;-64
2024/02/08 00:24:10;;;;;;;15.37;10.77;;;7.10;99.90;;;;;;4992953;28;20410;-60
2024/02/08 00:26:35;;;;;;;13.90;10.07;;;7.00;99.90;;;;;;4993248;28;20422;-64
2024/02/08 00:29:01;;;;;;;12.10;10.27;;;7.10;99.90;;;;;;4993343;28;20368;-63
2024/02/08 00:31:27;;;;;;;15.80;10.57;;;7.10;99.90;;;;;;4992871;28;20182;-64
2024/02/08 00:33:53;;;;;;;16.37;9.73;;;7.00;99.90;;;;;;4993392;28;20175;-64
2024/02/08 00:36:18;;;;;;;12.63;10.30;;;7.00;99.90;;;;;;4991271;28;20206;-63
2024/02/08 00:38:44;;;;;;;11.53;10.27;;;7.10;99.90;;;;;;4992274;28;20240;-64
2024/02/08 00:41:10;;;;;;;16.50;10.40;;;7.10;99.90;;;;;;4992895;28;20174;-59
2024/02/08 00:43:39;;;;;;;12.03;9.57;;;7.10;99.90;;;;;;4992392;28;20171;-64
2024/02/08 00:46:05;;;;;;;14.60;10.23;;;7.10;99.90;;;;;;4993078;28;20418;-63
2024/02/08 00:48:31;;;;;;;14.73;9.83;;;7.10;99.90;;;;;;4992236;28;20594;-64
2024/02/08 00:50:57;;;;;;;11.77;10.50;;;7.10;99.90;;;;;;4993088;28;20820;-64
2024/02/08 00:53:23;;;;;;;12.77;10.87;;;7.20;99.90;;;;;;4991057;28;20420;-64
2024/02/08 00:55:49;;;;;;;13.43;10.27;;;7.20;99.90;;;;;;4992206;28;20513;-64
2024/02/08 00:58:15;;;;;;;15.40;11.00;;;7.20;99.90;;;;;;4992148;28;20177;-63
2024/02/08 01:00:41;;;;;;;15.93;10.10;;;7.20;99.90;;;;;;4992891;28;20277;-65
2024/02/08 01:03:07;;;;;;;11.37;9.97;;;7.20;99.90;;;;;;4992019;28;20418;-64
2024/02/08 01:05:33;;;;;;;14.53;9.90;;;7.20;99.90;;;;;;4974756;28;20420;-64
2024/02/08 01:08:00;;;;;;;13.63;9.27;;;7.10;99.90;;;;;;4992104;28;20217;-64
2024/02/08 01:10:30;;;;;;;16.57;9.47;;;7.20;99.90;;;;;;4992000;28;20407;-64
2024/02/08 01:12:56;;;;;;;15.13;9.17;;;7.20;99.90;;;;;;4992848;28;20406;-64
2024/02/08 01:15:22;;;;;;;9.43;8.30;;;7.20;99.90;;;;;;4991012;28;20920;-64
2024/02/08 01:17:51;;;;;;;12.77;10.27;;;7.20;99.90;;;;;;4992184;28;20228;-64
2024/02/08 01:20:22;;;;;;;12.60;9.23;;;7.20;99.90;;;;;;4991478;28;20422;-63
2024/02/08 01:22:50;;;;;;;11.30;9.80;;;7.20;99.90;;;;;;4991857;28;20926;-64
2024/02/08 01:25:15;;;;;;;19.00;10.10;;;7.20;99.90;;;;;;4991879;28;20410;-64
2024/02/08 01:27:43;;;;;;;12.23;10.10;;;7.20;99.90;;;;;;4992168;28;20421;-64
2024/02/08 01:30:11;;;;;;;14.50;11.00;;;7.10;99.90;;;;;;4991900;28;20484;-63
2024/02/08 01:32:37;;;;;;;15.30;9.87;;;7.20;99.90;;;;;;4991256;28;20484;-64
2024/02/08 01:35:03;;;;;;;11.77;9.80;;;7.10;99.90;;;;;;4992048;28;20430;-64
2024/02/08 01:37:29;;;;;;;14.70;10.23;;;7.20;99.90;;;;;;4991349;28;20469;-64
2024/02/08 01:39:56;;;;;;;13.23;9.60;;;7.10;99.90;;;;;;4992429;28;20427;-64
2024/02/08 01:42:22;;;;;;;17.57;10.63;;;7.20;99.90;;;;;;4991228;28;20206;-64
2024/02/08 01:44:55;;;;;;;12.83;10.50;;;7.20;99.90;;;;;;4992034;28;20403;-63
2024/02/08 01:47:21;;;;;;;11.83;10.43;;;7.20;99.90;;;;;;4972148;28;20195;-64
2024/02/08 01:49:47;;;;;;;13.37;10.27;;;7.20;99.90;;;;;;4984403;28;20429;-64
2024/02/08 01:52:18;;;;;;;16.13;10.13;;;7.20;99.90;;;;;;4992331;28;20505;-59
2024/02/08 01:54:46;;;;;;;13.97;9.83;;;7.20;99.90;;;;;;4992607;28;20479;-64
2024/02/08 01:57:12;;;;;;;13.57;9.70;;;7.20;99.90;;;;;;4992393;28;20417;-65
2024/02/08 01:59:40;;;;;;;15.13;9.63;;;7.20;99.90;;;;;;4972873;28;20449;-64
2024/02/08 02:02:09;;;;;;;10.33;8.83;;;7.20;99.90;;;;;;4992665;28;20411;-64
2024/02/08 02:04:35;;;;;;;13.60;10.47;;;7.20;99.90;;;;;;4957305;28;21057;-64
2024/02/08 02:07:02;;;;;;;13.17;9.97;;;7.30;99.90;;;;;;4992125;28;20422;-64
2024/02/08 02:09:30;;;;;;;15.43;10.10;;;7.30;99.90;;;;;;4991398;28;20199;-64
2024/02/08 02:12:01;;;;;;;12.00;9.77;;;7.30;99.90;;;;;;4991407;28;20955;-64
2024/02/08 02:14:29;;;;;;;12.53;9.97;;;7.30;99.90;;;;;;4990747;28;20480;-64
2024/02/08 02:17:16;;;;;;;14.90;10.30;;;7.30;99.90;;;;;;4992105;28;20472;-64
2024/02/08 02:19:42;;;;;;;14.20;9.53;;;7.30;99.90;;;;;;4993996;28;20454;-64
2024/02/08 02:22:12;;;;;;;16.00;11.67;;;7.40;99.90;;;;;;4995201;28;20502;-64
2024/02/08 02:24:42;;;;;;;15.20;10.70;;;7.40;99.90;;;;;;4977422;28;20560;-64
2024/02/08 02:27:11;;;;;;;11.23;10.00;;;7.40;99.90;;;;;;4994308;28;20427;-64
2024/02/08 02:29:40;;;;;;;13.00;10.00;;;7.40;99.90;;;;;;4993551;28;20453;-64
2024/02/08 02:32:15;;;;;;;14.30;10.40;;;7.40;99.90;;;;;;4995551;28;20438;-64
2024/02/08 02:34:44;;;;;;;20.27;10.90;;;7.40;99.90;;;;;;4994230;28;20425;-64
2024/02/08 02:37:11;;;;;;;15.17;10.20;;;7.50;99.90;;;;;;4994619;28;20997;-64
2024/02/08 02:39:37;;;;;;;13.13;10.10;;;7.40;99.90;;;;;;4994637;28;20412;-64
2024/02/08 02:42:02;;;;;;;17.67;11.00;;;7.40;99.90;;;;;;4994722;28;20906;-64
2024/02/08 02:44:28;;;;;;;11.77;10.23;;;7.50;99.90;;;;;;4994155;28;20422;-64
2024/02/08 02:46:56;;;;;;;17.00;11.00;;;7.50;99.90;;;;;;4994693;28;20504;-64
2024/02/08 02:49:23;;;;;;;12.83;10.73;;;7.50;99.90;;;;;;4994242;28;20792;-64
2024/02/08 02:51:49;;;;;;;16.93;12.00;;;7.50;99.90;;;;;;4994451;28;20437;-64
2024/02/08 02:54:16;;;;;;;16.13;11.40;;;7.50;99.90;;;;;;4976907;28;20414;-64
2024/02/08 02:56:47;;;;;;;14.80;10.60;;;7.50;99.90;;;;;;4993564;28;20214;-63
2024/02/08 02:59:17;;;;;;;15.20;10.37;;;7.50;99.90;;;;;;4994427;28;21111;-64
2024/02/08 03:01:47;;;;;;;14.60;10.20;;;7.50;99.90;;;;;;4992956;28;20430;-63
2024/02/08 03:04:15;;;;;;;13.03;10.10;;;7.40;99.90;;;;;;4994919;28;20422;-64
2024/02/08 03:06:45;;;;;;;17.10;10.43;;;7.40;99.90;;;;;;4993780;28;20442;-64
2024/02/08 03:09:34;;;;;;;16.93;12.73;;;7.40;99.90;;;;;;4994189;28;20454;-64
2024/02/08 03:11:57;;;;;;;13.00;11.07;;;7.40;99.90;;;;;;4974727;28;20497;-64
2024/02/08 03:14:24;;;;;;;15.37;10.63;;;7.40;99.90;;;;;;4992034;28;20974;-64
2024/02/08 03:16:50;;;;;;;14.20;10.40;;;7.40;99.90;;;;;;4993919;28;20215;-64
2024/02/08 03:19:17;;;;;;;11.83;10.50;;;7.40;99.90;;;;;;4994812;28;20741;-64
2024/02/08 03:21:45;;;;;;;13.90;10.77;;;7.40;99.90;;;;;;4993939;28;20435;-64
2024/02/08 03:24:11;;;;;;;15.90;11.80;;;7.40;99.90;;;;;;4994011;28;20426;-64
2024/02/08 03:26:45;;;;;;;16.27;10.97;;;7.40;99.90;;;;;;4992600;28;20794;-64
2024/02/08 03:29:11;;;;;;;15.40;10.20;;;7.40;99.90;;;;;;4993815;28;20504;-64
2024/02/08 03:31:45;;;;;;;13.37;11.00;;;7.40;99.90;;;;;;4991365;28;20765;-64
2024/02/08 03:34:24;;;;;;;18.10;11.33;;;7.30;99.90;;;;;;4993175;28;20940;-64
2024/02/08 03:36:50;;;;;;;16.20;10.07;;;7.30;99.90;;;;;;4993357;28;20426;-64
2024/02/08 03:39:25;;;;;;;14.33;11.23;;;7.30;99.90;;;;;;4993795;28;20476;-63
2024/02/08 03:42:01;;;;;;;14.60;11.20;;;7.30;99.90;;;;;;4994328;28;20746;-60
2024/02/08 03:44:31;;;;;;;11.87;10.60;;;7.30;99.90;;;;;;4974054;28;20829;-63
2024/02/08 03:47:04;;;;;;;16.13;11.80;;;7.20;99.90;;;;;;4989981;28;20929;-64
2024/02/08 03:49:31;;;;;;;17.10;11.80;;;7.30;99.90;;;;;;4993006;28;20458;-64
2024/02/08 03:51:57;;;;;;;14.00;10.53;;;7.20;99.90;;;;;;4993717;28;20418;-64
2024/02/08 03:54:30;;;;;;;15.57;11.57;;;7.20;99.90;;;;;;4956505;28;20411;-59
2024/02/08 03:57:07;;;;;;;15.40;10.33;;;7.20;99.90;;;;;;4985123;28;20250;-65
2024/02/08 03:59:34;;;;;;;16.67;10.47;;;7.20;99.90;;;;;;4975268;28;20496;-64
2024/02/08 04:02:03;;;;;;;15.10;11.10;;;7.30;99.90;;;;;;4975689;28;20425;-64
2024/02/08 04:08:09;;;;;;;13.90;11.17;;;7.30;99.90;;;;;;4992751;28;20432;-60
2024/02/08 04:10:19;;;;;;;15.63;12.00;;;7.30;99.90;;;;;;4987196;28;20970;-64
2024/02/08 04:54:02;;;;;;;13.70;10.17;;;7.20;99.90;;;;;;4992752;28;20576;-64
2024/02/08 04:56:28;;;;;;;14.23;11.40;;;7.20;99.90;;;;;;4992464;28;20426;-60
2024/02/08 04:58:54;;;;;;;11.90;9.73;;;7.20;99.90;;;;;;4992219;28;20954;-64
2024/02/08 05:01:20;;;;;;;14.57;10.30;;;7.20;99.90;;;;;;4974377;28;20424;-64
2024/02/08 05:03:47;;;;;;;10.93;9.80;;;7.30;99.90;;;;;;4992148;28;21133;-64
2024/02/08 05:06:21;;;;;;;14.27;9.70;;;7.30;99.90;;;;;;4975276;28;20465;-65
2024/02/08 05:08:48;;;;;;;15.80;10.10;;;7.40;99.90;;;;;;4991441;28;20446;-64
2024/02/08 05:11:15;;;;;;;13.00;9.60;;;7.30;99.90;;;;;;4975472;28;20395;-64
2024/02/08 05:13:51;;;;;;;12.23;10.00;;;7.40;99.90;;;;;;4991478;28;20433;-63
2024/02/08 05:16:18;;;;;;;17.60;11.07;;;7.40;99.90;;;;;;4992135;28;20428;-64
2024/02/08 05:18:45;;;;;;;10.93;8.90;;;7.40;99.90;;;;;;4974141;28;20547;-64
2024/02/08 05:21:12;;;;;;;14.90;13.23;;;7.40;99.90;;;;;;4991287;28;20438;-64
2024/02/08 05:23:41;;;;;;;14.70;11.80;;;7.30;99.90;;;;;;4973307;28;20460;-64
2024/02/08 05:26:10;;;;;;;12.10;9.50;;;7.30;99.90;;;;;;4992629;28;20445;-62
2024/02/08 05:28:43;;;;;;;14.33;13.03;;;7.40;99.90;;;;;;4991707;28;20496;-63
2024/02/08 05:31:10;;;;;;;13.23;9.70;;;7.30;99.90;;;;;;4974641;28;20823;-66
2024/02/08 05:33:35;;;;;;;15.30;11.30;;;7.30;99.90;;;;;;4990827;28;20488;-65
2024/02/08 05:36:06;;;;;;;14.40;10.17;;;7.30;99.90;;;;;;4991200;28;20418;-65
2024/02/08 05:38:41;;;;;;;19.90;11.00;;;7.40;99.90;;;;;;4974690;28;20411;-65
2024/02/08 05:41:10;;;;;;;12.97;11.53;;;7.40;99.90;;;;;;4992189;28;20531;-65
2024/02/08 05:43:45;;;;;;;13.70;9.73;;;7.30;99.90;;;;;;4991543;28;20443;-65
2024/02/08 05:46:24;;;;;;;13.03;10.90;;;7.30;99.90;;;;;;4992187;28;20410;-65
2024/02/08 05:49:11;;;;;;;15.07;11.83;;;7.30;99.90;;;;;;4991615;28;21334;-66
2024/02/08 05:51:46;;;;;;;14.83;12.53;;;7.30;99.90;;;;;;4991736;28;20399;-65
2024/02/08 05:54:31;;;;;;;13.10;11.37;;;7.30;99.90;;;;;;4991907;28;20440;-66
2024/02/08 05:57:03;;;;;;;14.60;11.80;;;7.20;99.90;;;;;;4996329;28;20410;-65
2024/02/08 05:59:29;;;;;;;13.43;11.93;;;7.20;99.90;;;;;;4995489;28;20512;-59
2024/02/08 06:01:58;;;;;;;14.67;11.10;;;7.20;99.90;;;;;;4995278;28;20434;-64
2024/02/08 06:04:27;;;;;;;17.43;11.20;;;7.20;99.90;;;;;;4995231;28;20491;-64
2024/02/08 06:06:58;;;;;;;19.50;12.50;;;7.20;99.90;;;;;;4995156;28;20509;-65
2024/02/08 06:12:09;;;;;;;16.97;12.43;;;7.20;99.90;;;;;;4995872;28;20413;-65
2024/02/08 06:14:38;;;;;;;17.57;12.60;;;7.20;99.90;;;;;;4995199;28;20415;-64
2024/02/08 06:17:07;;;;;;;20.57;11.30;;;7.30;99.90;;;;;;4995468;28;20473;-65
2024/02/08 06:19:50;;;;;;;18.90;11.60;;;7.20;99.90;;;;;;4994618;28;20437;-64
2024/02/08 06:22:25;;;;;;;15.87;10.43;;;7.20;99.90;;;;;;4993543;28;20500;-65
2024/02/08 06:24:54;;;;;;;17.27;11.60;;;7.10;99.90;;;;;;4992810;28;21133;-64
2024/02/08 06:27:23;;;;;;;16.53;11.43;;;7.00;99.90;;;;;;4994997;28;20448;-61
2024/02/08 06:29:50;;;;;;;18.20;12.27;;;7.00;99.90;;;;;;4994149;28;20470;-62
2024/02/08 06:35:07;;;;;;;16.20;12.40;;;7.00;99.90;;;;;;4994214;28;20537;-61
2024/02/08 06:37:42;;;;;;;16.00;11.10;;;7.10;99.90;;;;;;4991063;28;20500;-59
2024/02/08 06:40:17;;;;;;;13.80;12.10;;;7.10;99.90;;;;;;4990159;28;20512;-60
2024/02/08 07:37:25;;;;;;;12.67;11.37;;;7.00;99.90;;;;;;4992825;28;20505;-61
2024/02/08 07:40:00;;;;;;;14.90;11.33;;;7.10;99.90;;;;;;4974892;28;20802;-60
2024/02/08 07:42:29;;;;;;;16.40;11.83;;;6.90;99.90;;;;;;4991848;28;20428;-61
2024/02/08 07:45:04;;;;;;;15.57;11.07;;;6.90;99.90;;;;;;4992685;28;20511;-60
2024/02/08 07:47:34;;;;;;;16.33;11.83;;;6.80;99.90;;;;;;4993360;28;20430;-61
2024/02/08 07:50:09;;;;;;;15.30;11.40;;;6.90;99.90;;;;;;4993302;28;20506;-61
2024/02/08 07:52:45;;;;;;;17.97;15.03;;;7.00;99.90;;;;;;4992822;28;20966;-59
2024/02/08 07:55:20;;;;;;;17.97;13.13;;;7.00;99.90;;;;;;4992872;28;20423;-60
2024/02/08 07:57:57;;;;;;;17.70;11.90;;;7.00;99.90;;;;;;4992845;28;20396;-61
2024/02/08 08:00:41;;;;;;;15.77;12.37;;;7.00;99.90;;;;;;4992985;28;20484;-61
2024/02/08 08:03:15;;;;;;;14.40;11.00;;;7.10;99.90;;;;;;4992322;28;20436;-61
2024/02/08 08:05:44;;;;;;;14.20;10.30;;;7.00;99.90;;;;;;4992198;28;20418;-60
2024/02/08 08:08:26;;;;;;;17.17;12.30;;;7.10;99.90;;;;;;4991656;28;20427;-60
2024/02/08 08:10:56;;;;;;;15.77;12.27;;;7.10;99.90;;;;;;4992510;28;20422;-61
2024/02/08 08:19:07;;;;;;;12.70;11.40;;;7.20;99.90;;;;;;4991833;28;20446;-61
2024/02/08 08:21:58;;;;;;;15.10;11.40;;;7.30;99.90;;;;;;4991896;28;20462;-61
2024/02/08 08:24:25;;;;;;;14.83;11.80;;;7.40;99.90;;;;;;4988734;28;20421;-61
2024/02/08 08:27:47;;;;;;;18.10;11.50;;;7.40;99.90;;;;;;4992410;28;20433;-61
2024/02/08 08:29:42;;;;;;;14.20;11.70;;;7.50;99.90;;;;;;4976708;28;20498;-60
2024/02/08 08:33:06;;;;;;;14.97;11.30;;;7.50;99.90;;;;;;4992139;28;20477;-61
2024/02/08 08:38:13;;;;;;;13.13;11.77;;;7.60;99.90;;;;;;4991058;28;20438;-60
2024/02/08 08:40:37;;;;;;;16.40;10.47;;;7.60;99.90;;;;;;4991734;28;20497;-60
2024/02/08 08:43:31;;;;;;;14.20;10.73;;;7.60;99.90;;;;;;4991580;28;20423;-61
2024/02/08 08:46:00;;;;;;;15.70;11.67;;;7.70;99.90;;;;;;4992508;28;20426;-61
2024/02/08 08:48:33;;;;;;;13.37;12.00;;;7.80;99.90;;;;;;4993201;28;20492;-67
2024/02/08 08:51:10;;;;;;;11.67;10.33;;;7.80;99.90;;;;;;4975004;28;20964;-66
2024/02/08 08:53:43;;;;;;;12.27;10.00;;;7.80;99.90;;;;;;4993135;28;20454;-64
2024/02/08 08:56:13;;;;;;;9.53;8.73;;;7.80;99.90;;;;;;4973912;28;20492;-64
2024/02/08 08:58:39;;;;;;;19.33;17.40;;;8.30;99.90;;;;;;4991856;28;20435;-58
2024/02/08 09:01:15;;;;;;;19.20;17.60;;;9.50;99.90;;;;;;4989579;28;20602;-58
2024/02/08 09:03:42;;;;;;;16.27;14.83;;;10.10;99.90;;;;;;4988691;28;20953;-58
2024/02/08 09:06:14;;;;;;;16.10;14.60;;;10.40;99.90;;;;;;4991537;28;20423;-60
2024/02/08 09:08:54;;;;;;;16.00;14.57;;;10.60;99.90;;;;;;4992629;28;20518;-59
2024/02/08 09:11:24;;;;;;;14.60;13.20;;;11.20;99.90;;;;;;4991133;28;20495;-59
2024/02/08 09:13:52;;;;;;;14.33;12.83;;;11.50;99.90;;;;;;4990056;28;20452;-58
2024/02/08 09:21:32;;;;;;;12.10;11.10;;;12.40;99.90;;;;;;4984168;28;20426;-58
2024/02/08 09:24:06;;;;;;;13.67;12.37;;;12.70;99.90;;;;;;4991832;28;20467;-59
2024/02/08 09:26:48;;;;;;;13.77;12.57;;;12.90;99.90;;;;;;4991808;28;20422;-62
2024/02/08 09:29:24;;;;;;;12.97;11.80;;;13.10;99.90;;;;;;4995164;28;20799;-59
2024/02/08 09:31:58;;;;;;;11.17;10.03;;;13.20;99.90;;;;;;4994366;28;20471;-59
2024/02/08 09:34:37;;;;;;;11.90;10.70;;;13.30;99.90;;;;;;4995575;28;20428;-59
2024/02/08 09:37:07;;;;;;;11.60;10.17;;;13.50;99.90;;;;;;4993353;28;20444;-59
2024/02/08 09:42:29;;;;;;;12.93;11.63;;;13.80;99.90;;;;;;4993070;28;20434;-60
2024/02/08 09:47:52;;;;;;;13.00;11.73;;;13.90;99.90;;;;;;4953458;28;20437;-59
2024/02/08 09:50:35;;;;;;;12.13;10.97;;;14.00;99.90;;;;;;4994325;28;20543;-59
2024/02/08 09:53:27;;;;;;;11.43;9.50;;;14.10;99.90;;;;;;4994006;28;20449;-59
2024/02/08 09:55:57;;;;;;;18.43;14.60;;;14.10;98.90;;;;;;4995057;28;20417;-59
2024/02/08 09:58:39;;;;;;;22.67;14.73;;;14.20;99.90;;;;;;4996566;28;20421;-59
2024/02/08 10:01:22;;;;;;;12.70;10.80;;;14.30;99.90;;;;;;4995711;28;20422;-59
2024/02/08 10:04:05;;;;;;;10.70;9.60;;;14.40;99.90;;;;;;4995762;28;20767;-59
2024/02/08 10:06:41;;;;;;;11.17;10.07;;;14.50;98.70;;;;;;4996203;28;20483;-59
2024/02/08 10:12:06;;;;;;;11.20;10.20;;;14.50;99.90;;;;;;4994800;28;20439;-59
2024/02/08 10:14:36;;;;;;;11.50;10.30;;;14.60;98.40;;;;;;4996542;28;20403;-59
2024/02/08 10:17:18;;;;;;;10.70;9.70;;;14.50;95.60;;;;;;4995514;28;20831;-59
2024/02/08 10:22:34;;;;;;;10.30;9.30;;;14.50;97.40;;;;;;4996217;28;20423;-59
2024/02/08 10:27:27;;;;;;;11.30;9.60;;;14.50;97.50;;;;;;4995877;28;20192;-59
2024/02/08 10:30:05;;;;;;;10.93;9.47;;;14.60;98.40;;;;;;4995313;28;20518;-59
2024/02/08 10:32:34;;;;;;;12.93;10.80;;;14.60;96.70;;;;;;4996114;28;20811;-59
2024/02/08 10:35:19;;;;;;;11.30;10.20;;;14.60;96.40;;;;;;4995334;28;20404;-59
2024/02/08 10:38:07;;;;;;;11.33;10.33;;;14.70;96.30;;;;;;4995428;28;20413;-59
2024/02/08 10:40:34;;;;;;;10.43;9.53;;;14.70;95.60;;;;;;4994604;28;20407;-59
2024/02/08 10:43:16;;;;;;;9.20;8.40;;;14.70;94.80;;;;;;4995000;28;20427;-59
2024/02/08 10:45:49;;;;;;;12.70;11.00;;;14.80;97.60;;;;;;4995762;28;20437;-59
2024/02/08 10:48:17;;;;;;;11.20;10.10;;;14.80;96.80;;;;;;4995315;28;20433;-59
2024/02/08 10:50:44;;;;;;;10.27;9.27;;;14.90;99.80;;;;;;4995350;28;20937;-59
2024/02/08 10:54:05;;;;;;;11.03;8.93;;;14.90;97.90;;;;;;4992795;28;20466;-59
2024/02/08 10:55:59;;;;;;;12.23;11.13;;;15.00;96.30;;;;;;4980742;28;20431;-59
2024/02/08 10:58:29;;;;;;;9.50;8.80;;;15.00;95.70;;;;;;4995506;28;20422;-59
2024/02/08 11:01:32;;;;;;;11.07;10.07;;;15.00;95.70;;;;;;4994912;28;20869;-61
2024/02/08 11:03:53;;;;;;;11.73;10.63;;;15.10;95.50;;;;;;4994058;28;20444;-60
2024/02/08 11:06:34;;;;;;;10.70;9.60;;;15.10;97.60;;;;;;4995361;28;20411;-60
2024/02/08 11:09:14;;;;;;;23.63;17.40;;;15.20;98.50;;;;;;4994704;28;20457;-60
2024/02/08 11:11:45;;;;;;;10.47;9.47;;;15.30;99.90;;;;;;4995053;28;20399;-60
2024/02/08 11:14:17;;;;;;;28.33;18.93;;;15.40;99.90;;;;;;4994319;28;20495;-61
2024/02/08 11:16:51;;;;;;;8.60;7.80;;;15.50;99.90;;;;;;4994615;28;20415;-60
2024/02/08 11:19:19;;;;;;;9.20;8.30;;;15.60;99.90;;;;;;4995357;28;20424;-61
2024/02/08 11:21:49;;;;;;;12.40;11.10;;;15.60;96.40;;;;;;4977450;28;20448;-60
2024/02/08 11:24:38;;;;;;;9.23;8.33;;;15.60;98.60;;;;;;4994159;28;20432;-60
2024/02/08 11:27:04;;;;;;;10.70;9.50;;;15.40;97.60;;;;;;4994451;28;20408;-60
2024/02/08 11:29:45;;;;;;;11.13;10.13;;;15.50;96.60;;;;;;4994899;28;20457;-60
2024/02/08 11:32:17;;;;;;;12.90;10.40;;;15.50;99.90;;;;;;4994134;28;20453;-60
2024/02/08 11:34:46;;;;;;;15.60;12.70;;;15.50;97.10;;;;;;4994857;28;20784;-60
2024/02/08 11:37:17;;;;;;;10.70;9.60;;;15.40;99.40;;;;;;4994741;28;20421;-60
2024/02/08 11:39:47;;;;;;;17.10;13.50;;;15.50;98.10;;;;;;4994749;28;20408;-59
2024/02/08 11:42:17;;;;;;;10.13;9.00;;;15.50;98.00;;;;;;4994679;28;20506;-59
2024/02/08 11:44:44;;;;;;;8.70;7.90;;;15.40;99.30;;;;;;4994711;28;20448;-59
2024/02/08 11:47:17;;;;;;;8.40;7.70;;;15.40;98.60;;;;;;4993865;28;20424;-59
2024/02/08 11:49:54;;;;;;;9.23;8.40;;;15.40;97.20;;;;;;4994087;28;20481;-59
2024/02/08 11:52:23;;;;;;;12.47;7.87;;;15.40;96.90;;;;;;4992631;28;20440;-59
2024/02/08 11:55:00;;;;;;;8.00;7.20;;;15.30;96.60;;;;;;4992881;28;20434;-59
2024/02/08 11:57:36;;;;;;;8.17;7.50;;;15.30;96.20;;;;;;4993356;28;20456;-59
2024/02/08 12:00:15;;;;;;;7.57;6.97;;;15.30;96.00;;;;;;4993603;28;20410;-59
2024/02/08 12:02:56;;;;;;;7.23;6.63;;;15.20;95.80;;;;;;4994337;28;20451;-59
2024/02/08 12:05:24;;;;;;;8.40;7.60;;;15.10;95.80;;;;;;4993996;28;20828;-59
2024/02/08 12:07:50;;;;;;;9.70;8.80;;;15.10;96.20;;;;;;4976056;28;20905;-59
2024/02/08 12:10:17;;;;;;;8.30;7.50;;;15.10;97.60;;;;;;4992990;28;20512;-59
2024/02/08 12:12:46;;;;;;;7.70;7.00;;;15.10;96.40;;;;;;4994174;28;20417;-59
2024/02/08 12:15:13;;;;;;;8.87;7.97;;;15.10;96.70;;;;;;4975944;28;20466;-59
2024/02/08 12:17:48;;;;;;;7.33;6.63;;;15.10;97.80;;;;;;4993823;28;20469;-59
2024/02/08 12:20:16;;;;;;;6.87;6.27;;;15.10;97.30;;;;;;4993117;28;20417;-59
2024/02/08 12:22:41;;;;;;;7.03;6.43;;;15.10;97.50;;;;;;4994001;28;20463;-59
2024/02/08 12:25:15;;;;;;;8.03;7.13;;;15.20;97.30;;;;;;4993303;28;20403;-59
2024/02/08 12:27:48;;;;;;;7.67;7.07;;;15.20;97.40;;;;;;4993845;28;20405;-59
2024/02/08 12:30:21;;;;;;;8.90;8.10;;;15.20;97.40;;;;;;4991451;28;20805;-59
2024/02/08 12:32:53;;;;;;;8.30;7.10;;;15.20;97.10;;;;;;4994118;28;20910;-59
2024/02/08 12:35:26;;;;;;;7.30;6.60;;;15.10;96.50;;;;;;4993832;28;20404;-59
2024/02/08 12:37:53;;;;;;;6.47;5.87;;;15.00;97.60;;;;;;4991532;28;20425;-59
2024/02/08 12:40:19;;;;;;;7.00;6.40;;;15.00;96.60;;;;;;4993404;28;20511;-59
2024/02/08 12:42:46;;;;;;;7.30;6.60;;;15.00;99.00;;;;;;4993692;28;20414;-59
2024/02/08 12:45:15;;;;;;;6.50;5.90;;;15.00;99.10;;;;;;4993226;28;20503;-59
2024/02/08 12:47:41;;;;;;;6.53;5.93;;;15.00;99.60;;;;;;4992734;28;20431;-59
2024/02/08 12:50:09;;;;;;;9.90;7.23;;;15.00;98.60;;;;;;4992785;28;20952;-59
2024/02/08 12:52:41;;;;;;;7.10;6.50;;;15.10;98.40;;;;;;4993248;28;20785;-59
2024/02/08 12:55:13;;;;;;;6.93;6.43;;;15.10;98.10;;;;;;4992841;28;20888;-58
2024/02/08 12:57:40;;;;;;;8.03;6.40;;;15.10;99.00;;;;;;4993532;28;20468;-58
2024/02/08 13:00:07;;;;;;;6.13;5.63;;;15.10;99.70;;;;;;4992803;28;20416;-58
2024/02/08 13:02:33;;;;;;;6.80;6.20;;;15.10;99.60;;;;;;4992694;28;20935;-58
2024/02/08 13:05:01;;;;;;;6.30;5.27;;;15.10;98.20;;;;;;4992738;28;20478;-58
2024/02/08 13:07:27;;;;;;;6.17;5.57;;;15.00;97.30;;;;;;4993367;28;20793;-59
2024/02/08 13:10:04;;;;;;;7.87;7.07;;;15.00;98.70;;;;;;4992773;28;20500;-59
2024/02/08 13:12:30;;;;;;;5.80;5.20;;;15.00;99.90;;;;;;4993368;28;20441;-59
2024/02/08 13:15:05;;;;;;;5.07;4.77;;;15.00;98.80;;;;;;4991797;28;20470;-59
2024/02/08 13:17:35;;;;;;;4.93;4.63;;;15.00;98.30;;;;;;4975602;28;20537;-60
2024/02/08 13:20:14;;;;;;;5.57;5.07;;;15.00;97.90;;;;;;4992630;28;20919;-59
2024/02/08 13:22:44;;;;;;;6.10;5.60;;;15.00;98.00;;;;;;4975636;28;20402;-60
2024/02/08 13:25:12;;;;;;;5.73;5.33;;;14.90;98.20;;;;;;4992569;28;20461;-60
2024/02/08 13:27:40;;;;;;;6.50;5.90;;;14.80;98.40;;;;;;4993424;28;20468;-59
2024/02/08 13:30:15;;;;;;;7.40;6.70;;;14.80;99.90;;;;;;4992384;28;20463;-60
2024/02/08 13:32:45;;;;;;;7.73;6.00;;;14.80;99.90;;;;;;4993042;28;20412;-58
2024/02/08 13:35:19;;;;;;;6.23;5.70;;;14.80;99.20;;;;;;4992496;28;20465;-59
2024/02/08 13:37:51;;;;;;;7.43;6.70;;;14.80;99.90;;;;;;4991754;28;20438;-59
2024/02/08 13:40:22;;;;;;;6.37;5.77;;;14.70;99.90;;;;;;4991843;28;20418;-59
2024/02/08 13:42:50;;;;;;;6.20;5.70;;;14.70;99.90;;;;;;4992510;28;20772;-59
2024/02/08 13:45:17;;;;;;;8.53;5.13;;;14.70;99.90;;;;;;4992301;28;20426;-59
2024/02/08 13:47:49;;;;;;;6.33;5.47;;;14.80;99.90;;;;;;4992822;28;20431;-60
2024/02/08 13:50:18;;;;;;;6.30;4.80;;;14.80;99.90;;;;;;4992097;28;20780;-67
2024/02/08 13:52:48;;;;;;;5.60;5.20;;;14.80;99.90;;;;;;4992866;28;20432;-67
2024/02/08 13:55:17;;;;;;;5.97;5.50;;;14.50;98.50;;;;;;4991786;28;20432;-66
2024/02/08 13:57:49;;;;;;;6.70;6.10;;;14.10;99.50;;;;;;4981315;28;20811;-66
2024/02/08 14:00:26;;;;;;;6.70;6.10;;;13.60;99.90;;;;;;4974984;28;20899;-67
2024/02/08 14:02:55;;;;;;;6.17;5.70;;;13.10;99.90;;;;;;4990900;28;20492;-66
2024/02/08 14:05:25;;;;;;;6.93;6.33;;;12.70;99.90;;;;;;4974929;28;20461;-66
2024/02/08 14:07:55;;;;;;;7.67;6.93;;;12.40;99.90;;;;;;4990667;28;20420;-68
2024/02/08 14:10:31;;;;;;;7.70;7.00;;;12.10;99.90;;;;;;4980912;28;20464;-66
2024/02/08 14:13:06;;;;;;;7.73;7.10;;;11.80;99.90;;;;;;4985500;28;20405;-64
2024/02/08 14:15:33;;;;;;;7.93;7.03;;;11.50;99.90;;;;;;4992783;28;20418;-65
2024/02/08 14:20:52;;;;;;;9.27;7.73;;;11.00;99.90;;;;;;4994230;28;20546;-67
2024/02/08 14:23:29;;;;;;;9.67;8.50;;;10.80;99.90;;;;;;4994612;28;20516;-66
2024/02/08 14:28:45;;;;;;;8.00;7.30;;;10.60;99.90;;;;;;4995809;28;20447;-67
2024/02/08 14:31:15;;;;;;;8.30;7.60;;;10.40;99.90;;;;;;4991861;28;20934;-67
2024/02/08 14:33:42;;;;;;;8.20;7.50;;;10.20;99.90;;;;;;4978035;28;20470;-66
2024/02/08 14:36:09;;;;;;;9.20;8.37;;;10.10;99.90;;;;;;4994641;28;20409;-65
2024/02/08 14:38:40;;;;;;;8.77;7.97;;;9.90;99.90;;;;;;4977561;28;20461;-65
2024/02/08 14:41:08;;;;;;;8.73;7.50;;;9.80;99.90;;;;;;4994697;28;20989;-67
2024/02/08 14:43:33;;;;;;;8.57;7.77;;;9.70;99.90;;;;;;4995587;28;20423;-66
2024/02/08 14:46:03;;;;;;;8.27;7.20;;;9.60;99.90;;;;;;4994757;28;20461;-66
2024/02/08 14:48:37;;;;;;;8.10;7.10;;;9.50;99.90;;;;;;4994209;28;20188;-66
2024/02/08 14:53:58;;;;;;;8.70;7.97;;;9.50;99.90;;;;;;4993922;28;20407;-66
2024/02/08 14:56:27;;;;;;;9.47;8.00;;;9.50;99.90;;;;;;4993291;28;20767;-66
2024/02/08 14:58:56;;;;;;;8.00;7.20;;;9.40;99.90;;;;;;4995028;28;20426;-64
2024/02/08 15:01:38;;;;;;;10.10;9.07;;;9.40;99.90;;;;;;4994417;28;20411;-66
2024/02/08 15:04:17;;;;;;;10.30;8.77;;;9.30;99.90;;;;;;4992784;28;20396;-66
2024/02/08 15:07:05;;;;;;;9.33;8.43;;;9.30;99.90;;;;;;4992587;28;20417;-68
2024/02/08 15:14:48;;;;;;;9.67;8.27;;;9.30;99.90;;;;;;4994499;28;20490;-66
2024/02/08 15:17:18;;;;;;;11.83;9.10;;;9.20;99.90;;;;;;4993874;28;20463;-66
2024/02/08 15:19:45;;;;;;;15.20;11.40;;;9.20;99.90;;;;;;4994535;28;20891;-67
2024/02/08 15:22:18;;;;;;;10.10;9.00;;;9.20;99.90;;;;;;4968325;28;20471;-66
2024/02/08 15:24:48;;;;;;;10.57;9.10;;;9.20;99.90;;;;;;4982536;28;20443;-67
2024/02/08 15:27:18;;;;;;;14.90;12.13;;;9.20;99.90;;;;;;4993841;28;20412;-67